Time;durP1;ratioP1;P1;durP2;ratioP2;P2;SDS_P1;SDS_P2;PMS_P1;PMS_P2;Temp;Humidity;BMP_temperature;BMP_pressure;BME280_temperature;BME280_humidity;BME280_pressure;Samples;Min_cycle;Max_cycle;Signal;HPM_P1;HPM_P2
2021/07/12 00:00:50;;;;;;;5.25;2.92;;;;;;;;;;5014080;28;20056;-59
2021/07/12 00:03:16;;;;;;;6.93;3.40;;;;;;;;;;5012796;28;20656;-58
2021/07/12 00:05:42;;;;;;;5.95;3.20;;;;;;;;;;5010085;28;20056;-59
2021/07/12 00:08:08;;;;;;;6.38;3.25;;;;;;;;;;5010449;28;20069;-60
2021/07/12 00:10:34;;;;;;;6.03;3.20;;;;;;;;;;5010638;28;20105;-60
2021/07/12 00:13:01;;;;;;;6.03;3.28;;;;;;;;;;5012677;28;20971;-59
2021/07/12 00:15:27;;;;;;;5.88;2.90;;;;;;;;;;5011744;28;20429;-62
2021/07/12 00:17:53;;;;;;;7.70;3.42;;;;;;;;;;5015142;28;20124;-63
2021/07/12 00:20:19;;;;;;;6.80;3.78;;;;;;;;;;5013415;28;20053;-60
2021/07/12 00:22:46;;;;;;;6.97;3.30;;;;;;;;;;5011827;28;20568;-61
2021/07/12 00:25:12;;;;;;;9.82;3.92;;;;;;;;;;5012487;28;20046;-59
2021/07/12 00:27:38;;;;;;;6.25;2.92;;;;;;;;;;5012798;28;20093;-61
2021/07/12 00:30:05;;;;;;;7.07;3.03;;;;;;;;;;5013072;28;20052;-60
2021/07/12 00:32:31;;;;;;;5.95;3.33;;;;;;;;;;5007454;28;20042;-60
2021/07/12 00:34:56;;;;;;;6.20;3.00;;;;;;;;;;5012080;28;20044;-58
2021/07/12 00:37:22;;;;;;;5.63;2.90;;;;;;;;;;5010966;28;20774;-60
2021/07/12 00:39:48;;;;;;;6.18;3.13;;;;;;;;;;5013028;28;20107;-58
2021/07/12 00:42:14;;;;;;;5.70;2.70;;;;;;;;;;5013951;28;20072;-59
2021/07/12 00:44:41;;;;;;;7.20;2.80;;;;;;;;;;5009463;28;20050;-60
2021/07/12 00:47:07;;;;;;;6.65;3.17;;;;;;;;;;5011313;28;20098;-60
2021/07/12 00:49:34;;;;;;;5.20;2.75;;;;;;;;;;5010969;28;20069;-59
2021/07/12 00:52:00;;;;;;;5.93;2.92;;;;;;;;;;5011738;28;20481;-57
2021/07/12 00:54:28;;;;;;;5.70;2.95;;;;;;;;;;5014195;28;20046;-60
2021/07/12 00:56:55;;;;;;;5.10;2.80;;;;;;;;;;5011397;28;20165;-59
2021/07/12 00:59:21;;;;;;;5.13;2.58;;;;;;;;;;5013112;28;20099;-60
2021/07/12 01:01:47;;;;;;;5.65;3.03;;;;;;;;;;5015471;28;20125;-61
2021/07/12 01:04:13;;;;;;;5.20;2.65;;;;;;;;;;5012928;28;20136;-62
2021/07/12 01:06:39;;;;;;;6.32;2.85;;;;;;;;;;5009757;28;20064;-58
2021/07/12 01:09:05;;;;;;;4.80;2.20;;;;;;;;;;5016402;28;20375;-61
2021/07/12 01:11:31;;;;;;;4.88;2.42;;;;;;;;;;5011026;28;20060;-59
2021/07/12 01:14:05;;;;;;;5.00;2.53;;;;;;;;;;5012515;28;20447;-58
2021/07/12 01:16:43;;;;;;;10.55;2.70;;;;;;;;;;5011486;28;20058;-57
2021/07/12 01:19:27;;;;;;;5.78;2.80;;;;;;;;;;5013438;28;20550;-60
2021/07/12 01:22:08;;;;;;;5.78;2.60;;;;;;;;;;5012682;28;20037;-60
2021/07/12 01:24:53;;;;;;;5.82;2.67;;;;;;;;;;5009555;28;20135;-61
2021/07/12 01:27:24;;;;;;;6.70;3.00;;;;;;;;;;5008982;28;20403;-60
2021/07/12 01:30:07;;;;;;;5.65;2.60;;;;;;;;;;5010047;28;20053;-63
2021/07/12 01:32:40;;;;;;;4.78;2.63;;;;;;;;;;5008558;28;20046;-61
2021/07/12 01:35:09;;;;;;;5.35;2.95;;;;;;;;;;5009772;28;20083;-56
2021/07/12 01:37:54;;;;;;;5.20;2.50;;;;;;;;;;5010253;28;20084;-60
2021/07/12 01:40:46;;;;;;;4.60;2.33;;;;;;;;;;5007224;28;20070;-61
2021/07/12 01:43:12;;;;;;;5.60;2.58;;;;;;;;;;5009069;28;20037;-60
2021/07/12 01:45:54;;;;;;;5.10;2.67;;;;;;;;;;5006888;28;20092;-60
2021/07/12 01:48:23;;;;;;;5.63;3.00;;;;;;;;;;5007878;28;20052;-59
2021/07/12 01:50:55;;;;;;;5.22;2.80;;;;;;;;;;5008293;28;20049;-59
2021/07/12 01:53:27;;;;;;;7.07;2.80;;;;;;;;;;5009559;28;20041;-59
2021/07/12 01:56:12;;;;;;;6.53;2.63;;;;;;;;;;5008273;28;20038;-60
2021/07/12 01:58:49;;;;;;;4.93;2.30;;;;;;;;;;5008660;28;20049;-59
2021/07/12 02:01:15;;;;;;;5.88;2.55;;;;;;;;;;5010737;28;20037;-60
2021/07/12 02:03:42;;;;;;;4.57;2.15;;;;;;;;;;5011055;28;20141;-60
2021/07/12 02:06:10;;;;;;;5.95;3.17;;;;;;;;;;5009260;28;20048;-59
2021/07/12 02:08:39;;;;;;;5.75;2.83;;;;;;;;;;5008175;28;20069;-60
2021/07/12 02:11:06;;;;;;;5.15;2.58;;;;;;;;;;5011963;28;20073;-59
2021/07/12 02:13:34;;;;;;;5.30;2.67;;;;;;;;;;5007968;28;20037;-58
2021/07/12 02:16:02;;;;;;;5.53;2.78;;;;;;;;;;5010550;28;20049;-61
2021/07/12 02:18:31;;;;;;;6.00;2.65;;;;;;;;;;5012149;28;20061;-60
2021/07/12 02:20:57;;;;;;;5.40;2.60;;;;;;;;;;5010339;28;20042;-59
2021/07/12 02:23:23;;;;;;;5.45;2.97;;;;;;;;;;5010120;28;20808;-60
2021/07/12 02:25:51;;;;;;;5.47;2.90;;;;;;;;;;5011154;28;20096;-58
2021/07/12 02:28:17;;;;;;;5.88;2.85;;;;;;;;;;5010578;28;20033;-59
2021/07/12 02:30:44;;;;;;;5.57;2.80;;;;;;;;;;5009620;28;20045;-59
2021/07/12 02:33:10;;;;;;;6.15;2.78;;;;;;;;;;5009316;28;20507;-60
2021/07/12 02:35:36;;;;;;;6.25;2.58;;;;;;;;;;5009150;28;20502;-60
2021/07/12 02:38:03;;;;;;;5.32;2.63;;;;;;;;;;5025839;28;20034;-61
2021/07/12 02:40:29;;;;;;;8.10;2.63;;;;;;;;;;5012394;28;20049;-59
2021/07/12 02:42:56;;;;;;;6.60;2.50;;;;;;;;;;5012923;28;20048;-60
2021/07/12 02:45:26;;;;;;;5.50;2.50;;;;;;;;;;5012875;28;20049;-56
2021/07/12 02:47:52;;;;;;;5.32;2.80;;;;;;;;;;5015654;28;20037;-59
2021/07/12 02:50:18;;;;;;;5.25;2.67;;;;;;;;;;5012036;28;20049;-60
2021/07/12 02:52:46;;;;;;;5.07;2.58;;;;;;;;;;5014100;28;20627;-57
2021/07/12 02:55:12;;;;;;;5.00;2.47;;;;;;;;;;5013228;28;20088;-60
2021/07/12 02:57:39;;;;;;;5.60;2.50;;;;;;;;;;5012571;28;20125;-59
2021/07/12 03:00:06;;;;;;;5.88;2.63;;;;;;;;;;5013725;28;20919;-59
2021/07/12 03:02:32;;;;;;;5.28;2.80;;;;;;;;;;5013097;28;20052;-58
2021/07/12 03:04:58;;;;;;;5.45;2.78;;;;;;;;;;5011880;28;20041;-58
2021/07/12 03:07:33;;;;;;;5.68;2.75;;;;;;;;;;5014116;28;20038;-61
2021/07/12 03:10:01;;;;;;;4.68;2.20;;;;;;;;;;5013351;28;20049;-57
2021/07/12 03:12:30;;;;;;;5.28;2.70;;;;;;;;;;5012113;28;20089;-59
2021/07/12 03:15:02;;;;;;;6.75;2.80;;;;;;;;;;5011579;28;20041;-57
2021/07/12 03:17:28;;;;;;;8.50;2.70;;;;;;;;;;5011938;28;20045;-58
2021/07/12 03:19:55;;;;;;;5.85;2.90;;;;;;;;;;5012297;28;20038;-61
2021/07/12 03:22:21;;;;;;;5.13;2.50;;;;;;;;;;5010574;28;20038;-58
2021/07/12 03:24:49;;;;;;;4.97;2.40;;;;;;;;;;5012034;28;20049;-58
2021/07/12 03:27:17;;;;;;;4.35;2.20;;;;;;;;;;5011639;28;20045;-57
2021/07/12 03:29:44;;;;;;;4.78;2.33;;;;;;;;;;5010666;28;20053;-60
2021/07/12 03:32:11;;;;;;;5.10;2.40;;;;;;;;;;5010339;28;20041;-57
2021/07/12 03:34:37;;;;;;;4.88;2.72;;;;;;;;;;5009950;28;20038;-59
2021/07/12 03:37:03;;;;;;;4.35;2.30;;;;;;;;;;5012095;28;20041;-57
2021/07/12 03:39:29;;;;;;;4.70;2.28;;;;;;;;;;5010231;28;20160;-59
2021/07/12 03:41:56;;;;;;;5.97;2.42;;;;;;;;;;5011538;28;20455;-59
2021/07/12 03:44:22;;;;;;;5.22;2.47;;;;;;;;;;5010517;28;20122;-59
2021/07/12 03:46:48;;;;;;;5.80;2.58;;;;;;;;;;5010386;28;20053;-59
2021/07/12 03:49:15;;;;;;;7.05;2.75;;;;;;;;;;5015269;28;20045;-61
2021/07/12 03:51:41;;;;;;;4.70;2.03;;;;;;;;;;5013835;28;20054;-59
2021/07/12 03:54:08;;;;;;;4.70;2.22;;;;;;;;;;5028755;28;20053;-57
2021/07/12 03:56:34;;;;;;;6.45;2.45;;;;;;;;;;5015741;28;20726;-59
2021/07/12 03:59:00;;;;;;;5.43;2.72;;;;;;;;;;5019805;28;20109;-57
2021/07/12 04:01:26;;;;;;;6.20;2.75;;;;;;;;;;5019716;28;20038;-59
2021/07/12 04:03:53;;;;;;;6.97;2.42;;;;;;;;;;5018284;28;20034;-59
2021/07/12 04:06:19;;;;;;;4.90;2.35;;;;;;;;;;5014429;28;20029;-58
2021/07/12 04:08:45;;;;;;;6.10;2.50;;;;;;;;;;5015959;28;20396;-59
2021/07/12 04:11:12;;;;;;;5.43;2.78;;;;;;;;;;5013220;28;20057;-58
2021/07/12 04:13:38;;;;;;;4.95;2.20;;;;;;;;;;5012722;28;20099;-58
2021/07/12 04:16:07;;;;;;;6.07;2.75;;;;;;;;;;5011884;28;21001;-58
2021/07/12 04:18:33;;;;;;;9.57;2.50;;;;;;;;;;5013161;28;20600;-56
2021/07/12 04:20:59;;;;;;;5.32;2.40;;;;;;;;;;5011644;28;20038;-57
2021/07/12 04:23:24;;;;;;;5.90;2.10;;;;;;;;;;5011995;28;20168;-60
2021/07/12 04:25:50;;;;;;;7.85;3.65;;;;;;;;;;5010441;28;22141;-59
2021/07/12 04:28:16;;;;;;;6.13;3.22;;;;;;;;;;5014373;28;20167;-58
2021/07/12 04:30:42;;;;;;;7.22;2.95;;;;;;;;;;5012132;28;20053;-57
2021/07/12 04:33:08;;;;;;;6.13;2.67;;;;;;;;;;5011119;28;20038;-59
2021/07/12 04:35:34;;;;;;;5.70;2.75;;;;;;;;;;5008279;28;20483;-58
2021/07/12 04:38:00;;;;;;;6.75;2.92;;;;;;;;;;5012224;28;20763;-60
2021/07/12 04:40:26;;;;;;;5.88;2.83;;;;;;;;;;5010843;28;20046;-59
2021/07/12 04:42:52;;;;;;;9.93;2.70;;;;;;;;;;5011448;28;20566;-59
2021/07/12 04:45:18;;;;;;;6.70;3.15;;;;;;;;;;5010444;28;20033;-59
2021/07/12 04:47:43;;;;;;;8.93;3.20;;;;;;;;;;5013207;28;20573;-59
2021/07/12 04:50:09;;;;;;;10.45;2.95;;;;;;;;;;5011045;28;20136;-59
2021/07/12 04:52:35;;;;;;;8.20;2.92;;;;;;;;;;5009740;28;20053;-57
2021/07/12 04:55:05;;;;;;;6.63;3.38;;;;;;;;;;5009348;28;20798;-58
2021/07/12 04:57:31;;;;;;;8.77;3.35;;;;;;;;;;5010476;28;20048;-59
2021/07/12 04:59:57;;;;;;;7.93;3.50;;;;;;;;;;5010517;28;20033;-60
2021/07/12 05:02:23;;;;;;;10.05;4.18;;;;;;;;;;5009008;28;20048;-58
2021/07/12 05:04:48;;;;;;;7.65;3.20;;;;;;;;;;5009476;28;20053;-56
2021/07/12 05:07:14;;;;;;;7.32;3.75;;;;;;;;;;5008586;28;20414;-60
2021/07/12 05:09:40;;;;;;;9.07;3.70;;;;;;;;;;5009252;28;20053;-60
2021/07/12 05:12:08;;;;;;;8.35;3.63;;;;;;;;;;5012460;28;20046;-58
2021/07/12 05:14:37;;;;;;;10.48;3.65;;;;;;;;;;5009561;28;20498;-59
2021/07/12 05:17:03;;;;;;;6.55;3.38;;;;;;;;;;5010515;28;20391;-58
2021/07/12 05:19:29;;;;;;;9.10;3.92;;;;;;;;;;5010450;28;20065;-58
2021/07/12 05:21:55;;;;;;;8.25;3.60;;;;;;;;;;5007657;28;20121;-55
2021/07/12 05:24:21;;;;;;;6.78;3.20;;;;;;;;;;5006510;28;20116;-59
2021/07/12 05:26:47;;;;;;;10.32;3.22;;;;;;;;;;5009498;28;21456;-58
2021/07/12 05:29:13;;;;;;;6.25;3.17;;;;;;;;;;5013031;28;20038;-58
2021/07/12 05:31:39;;;;;;;6.68;3.03;;;;;;;;;;5009674;28;20056;-57
2021/07/12 05:34:06;;;;;;;8.52;3.40;;;;;;;;;;5011599;28;20606;-58
2021/07/12 05:36:32;;;;;;;9.65;3.58;;;;;;;;;;5010806;28;20040;-57
2021/07/12 05:38:58;;;;;;;9.27;3.80;;;;;;;;;;5010127;28;20106;-58
2021/07/12 05:41:24;;;;;;;7.30;3.50;;;;;;;;;;5009289;28;20054;-58
2021/07/12 05:43:49;;;;;;;7.30;3.42;;;;;;;;;;5009253;28;20042;-57
2021/07/12 05:46:15;;;;;;;9.95;4.03;;;;;;;;;;5008846;28;20944;-58
2021/07/12 05:48:41;;;;;;;8.10;4.10;;;;;;;;;;5009495;28;20071;-58
2021/07/12 05:51:07;;;;;;;7.57;3.78;;;;;;;;;;5008662;28;20064;-58
2021/07/12 05:53:34;;;;;;;7.18;3.78;;;;;;;;;;5007103;28;20104;-58
2021/07/12 05:55:59;;;;;;;9.82;3.92;;;;;;;;;;5006627;28;20045;-57
2021/07/12 05:58:25;;;;;;;9.82;4.13;;;;;;;;;;5008787;28;20071;-57
2021/07/12 06:00:51;;;;;;;13.10;4.05;;;;;;;;;;5008628;28;20240;-57
2021/07/12 06:03:18;;;;;;;7.65;3.90;;;;;;;;;;5006625;28;20042;-57
2021/07/12 06:05:44;;;;;;;7.68;4.00;;;;;;;;;;5007753;28;20144;-57
2021/07/12 06:08:10;;;;;;;10.77;3.92;;;;;;;;;;5008174;28;20128;-54
2021/07/12 06:10:35;;;;;;;9.13;4.10;;;;;;;;;;5008289;28;20057;-55
2021/07/12 06:13:01;;;;;;;10.20;4.10;;;;;;;;;;5008406;28;20042;-57
2021/07/12 06:15:27;;;;;;;10.43;4.05;;;;;;;;;;5011162;28;20034;-56
2021/07/12 06:17:53;;;;;;;8.05;3.63;;;;;;;;;;5012413;28;20417;-56
2021/07/12 06:20:19;;;;;;;8.20;3.88;;;;;;;;;;5010860;28;20064;-58
2021/07/12 06:22:46;;;;;;;9.75;3.88;;;;;;;;;;5012262;28;20103;-55
2021/07/12 06:25:12;;;;;;;10.23;4.43;;;;;;;;;;5009991;28;20050;-55
2021/07/12 06:27:38;;;;;;;8.98;4.70;;;;;;;;;;5010539;28;20042;-56
2021/07/12 06:30:05;;;;;;;8.63;4.32;;;;;;;;;;5011193;28;20060;-57
2021/07/12 06:32:30;;;;;;;9.48;4.32;;;;;;;;;;5011479;28;20065;-56
2021/07/12 06:34:56;;;;;;;7.80;3.78;;;;;;;;;;5009223;28;20175;-57
2021/07/12 06:37:22;;;;;;;8.20;3.63;;;;;;;;;;5011798;28;20045;-56
2021/07/12 06:39:48;;;;;;;7.47;4.00;;;;;;;;;;5012692;28;20044;-54
2021/07/12 06:42:14;;;;;;;12.25;4.55;;;;;;;;;;5011531;28;20046;-57
2021/07/12 06:44:39;;;;;;;6.80;3.38;;;;;;;;;;5008897;28;20045;-57
2021/07/12 06:47:05;;;;;;;8.85;3.80;;;;;;;;;;5012428;28;20041;-57
2021/07/12 06:49:31;;;;;;;7.90;3.63;;;;;;;;;;5012712;28;20057;-55
2021/07/12 06:51:57;;;;;;;7.03;3.45;;;;;;;;;;5011930;28;20045;-55
2021/07/12 06:54:23;;;;;;;7.78;4.10;;;;;;;;;;5014083;28;20136;-56
2021/07/12 06:56:49;;;;;;;8.02;3.83;;;;;;;;;;5012352;28;20051;-57
2021/07/12 06:59:14;;;;;;;7.28;3.80;;;;;;;;;;5011917;28;20034;-56
2021/07/12 07:01:41;;;;;;;9.38;3.85;;;;;;;;;;5012131;28;20060;-56
2021/07/12 07:04:07;;;;;;;8.30;3.60;;;;;;;;;;5011716;28;20050;-57
2021/07/12 07:06:33;;;;;;;6.35;3.15;;;;;;;;;;5009645;28;20068;-56
2021/07/12 07:08:59;;;;;;;8.13;3.40;;;;;;;;;;5009894;28;20046;-57
2021/07/12 07:11:25;;;;;;;9.38;3.58;;;;;;;;;;5012254;28;20052;-55
2021/07/12 07:13:51;;;;;;;6.18;2.88;;;;;;;;;;5013609;28;20077;-57
2021/07/12 07:16:16;;;;;;;7.70;3.13;;;;;;;;;;5011364;28;20064;-57
2021/07/12 07:18:42;;;;;;;7.15;3.20;;;;;;;;;;5011581;28;20087;-59
2021/07/12 07:21:08;;;;;;;7.18;3.08;;;;;;;;;;5012982;28;20406;-56
2021/07/12 07:23:34;;;;;;;6.70;2.88;;;;;;;;;;5012139;28;20033;-59
2021/07/12 07:26:00;;;;;;;6.15;2.90;;;;;;;;;;5010250;28;20029;-56
2021/07/12 07:28:26;;;;;;;6.95;3.33;;;;;;;;;;5012107;28;20677;-57
2021/07/12 07:30:52;;;;;;;7.05;2.83;;;;;;;;;;5012750;28;20073;-56
2021/07/12 07:33:19;;;;;;;6.15;2.85;;;;;;;;;;5010712;28;20150;-56
2021/07/12 07:35:44;;;;;;;6.32;3.05;;;;;;;;;;5012340;28;20509;-57
2021/07/12 07:38:10;;;;;;;6.78;3.08;;;;;;;;;;5011558;28;20050;-57
2021/07/12 07:40:36;;;;;;;7.50;3.53;;;;;;;;;;5014231;28;20183;-57
2021/07/12 07:43:03;;;;;;;10.68;3.58;;;;;;;;;;5013463;28;20466;-57
2021/07/12 07:45:31;;;;;;;9.68;3.50;;;;;;;;;;5013888;28;20037;-56
2021/07/12 07:47:57;;;;;;;6.80;3.28;;;;;;;;;;5014469;28;21859;-55
2021/07/12 07:50:23;;;;;;;12.07;3.90;;;;;;;;;;5012732;28;20087;-56
2021/07/12 07:52:50;;;;;;;6.38;3.22;;;;;;;;;;5012857;28;20037;-53
2021/07/12 07:55:15;;;;;;;8.15;3.35;;;;;;;;;;5013505;28;20046;-57
2021/07/12 07:57:42;;;;;;;6.65;2.83;;;;;;;;;;5012860;28;20434;-58
2021/07/12 08:00:12;;;;;;;6.15;3.22;;;;;;;;;;5015400;28;20092;-54
2021/07/12 08:02:38;;;;;;;7.70;3.70;;;;;;;;;;5013586;28;20128;-55
2021/07/12 08:05:06;;;;;;;10.40;3.60;;;;;;;;;;5012096;28;20052;-57
2021/07/12 08:07:32;;;;;;;5.85;2.97;;;;;;;;;;5012269;28;20087;-54
2021/07/12 08:09:58;;;;;;;6.05;2.72;;;;;;;;;;5013189;28;20299;-57
2021/07/12 08:12:24;;;;;;;7.55;3.20;;;;;;;;;;5010395;28;20616;-56
2021/07/12 08:14:50;;;;;;;8.32;3.47;;;;;;;;;;5012095;28;20033;-56
2021/07/12 08:17:16;;;;;;;7.03;3.15;;;;;;;;;;5011729;28;20048;-56
2021/07/12 08:19:42;;;;;;;9.77;3.40;;;;;;;;;;5013004;28;20124;-57
2021/07/12 08:22:07;;;;;;;6.53;3.38;;;;;;;;;;5012369;28;20044;-55
2021/07/12 08:24:34;;;;;;;7.72;3.35;;;;;;;;;;5014906;28;20106;-55
2021/07/12 08:27:01;;;;;;;6.25;2.90;;;;;;;;;;5028234;28;20076;-53
2021/07/12 08:29:27;;;;;;;6.15;3.38;;;;;;;;;;5009568;28;20048;-55
2021/07/12 08:31:53;;;;;;;9.15;3.60;;;;;;;;;;5014571;28;20046;-54
2021/07/12 08:34:19;;;;;;;13.70;3.78;;;;;;;;;;5010881;28;20037;-57
2021/07/12 08:36:44;;;;;;;6.93;3.33;;;;;;;;;;5011034;28;20033;-56
2021/07/12 08:39:10;;;;;;;8.35;3.50;;;;;;;;;;5011279;28;20041;-57
2021/07/12 08:41:37;;;;;;;6.70;3.08;;;;;;;;;;5009875;28;20049;-55
2021/07/12 08:44:03;;;;;;;7.22;3.75;;;;;;;;;;5008675;28;20949;-57
2021/07/12 08:46:29;;;;;;;8.23;3.28;;;;;;;;;;5010119;28;20042;-57
2021/07/12 08:48:54;;;;;;;7.95;3.75;;;;;;;;;;5011358;28;20041;-56
2021/07/12 08:51:21;;;;;;;9.27;4.05;;;;;;;;;;5010841;28;20064;-57
2021/07/12 08:53:47;;;;;;;10.68;4.10;;;;;;;;;;5012437;28;20038;-57
2021/07/12 08:56:13;;;;;;;8.93;3.85;;;;;;;;;;5011945;28;20421;-54
2021/07/12 08:58:39;;;;;;;8.02;3.72;;;;;;;;;;5011849;28;20351;-55
2021/07/12 09:01:07;;;;;;;11.73;3.88;;;;;;;;;;5011330;28;20346;-56
2021/07/12 09:03:34;;;;;;;7.05;3.28;;;;;;;;;;5010977;28;20046;-55
2021/07/12 09:06:00;;;;;;;7.45;3.50;;;;;;;;;;5010043;28;20107;-54
2021/07/12 09:08:38;;;;;;;7.22;3.53;;;;;;;;;;5008668;28;20767;-51
2021/07/12 09:11:06;;;;;;;7.65;3.90;;;;;;;;;;5011961;28;20055;-56
2021/07/12 09:13:53;;;;;;;10.27;3.90;;;;;;;;;;5010721;28;20125;-54
2021/07/12 09:16:33;;;;;;;6.40;3.25;;;;;;;;;;5009527;28;20518;-54
2021/07/12 09:19:18;;;;;;;12.18;3.88;;;;;;;;;;5009340;28;20045;-56
2021/07/12 09:21:59;;;;;;;11.05;3.63;;;;;;;;;;5011330;28;20041;-54
2021/07/12 09:24:30;;;;;;;8.77;4.13;;;;;;;;;;5008847;28;20066;-56
2021/07/12 09:26:56;;;;;;;8.90;3.95;;;;;;;;;;5011858;28;20044;-56
2021/07/12 09:29:26;;;;;;;10.18;4.03;;;;;;;;;;5008714;28;20037;-55
2021/07/12 09:31:52;;;;;;;7.55;4.05;;;;;;;;;;5009593;28;20858;-55
2021/07/12 09:34:19;;;;;;;9.90;4.40;;;;;;;;;;5009534;28;20041;-52
2021/07/12 09:36:45;;;;;;;8.20;4.10;;;;;;;;;;5010743;28;20534;-55
2021/07/12 09:39:30;;;;;;;7.50;3.95;;;;;;;;;;5010961;28;20069;-55
2021/07/12 09:41:57;;;;;;;9.13;4.00;;;;;;;;;;5010145;28;20053;-56
2021/07/12 09:44:24;;;;;;;9.02;4.82;;;;;;;;;;5008798;28;20108;-56
2021/07/12 09:46:50;;;;;;;10.90;5.38;;;;;;;;;;5010006;28;20072;-54
2021/07/12 09:49:18;;;;;;;9.38;4.88;;;;;;;;;;5010775;28;20053;-54
2021/07/12 09:51:44;;;;;;;9.43;4.88;;;;;;;;;;5008487;28;20057;-54
2021/07/12 09:54:19;;;;;;;11.90;4.85;;;;;;;;;;5008743;28;20057;-55
2021/07/12 09:56:47;;;;;;;16.15;4.85;;;;;;;;;;5010401;28;20525;-53
2021/07/12 09:59:16;;;;;;;11.63;4.85;;;;;;;;;;5014485;28;20477;-56
2021/07/12 10:01:46;;;;;;;10.05;4.75;;;;;;;;;;5010554;28;20049;-56
2021/07/12 10:04:12;;;;;;;9.70;4.88;;;;;;;;;;5009736;28;20058;-55
2021/07/12 10:06:38;;;;;;;11.10;5.15;;;;;;;;;;5009162;28;20539;-52
2021/07/12 10:09:04;;;;;;;9.63;4.90;;;;;;;;;;5009018;28;20037;-54
2021/07/12 10:11:31;;;;;;;11.48;5.53;;;;;;;;;;5010499;28;20049;-54
2021/07/12 10:13:58;;;;;;;11.07;5.00;;;;;;;;;;5009305;28;20048;-56
2021/07/12 10:16:24;;;;;;;9.27;5.15;;;;;;;;;;5008893;28;20033;-56
2021/07/12 10:18:50;;;;;;;11.95;4.90;;;;;;;;;;5007891;28;20056;-55
2021/07/12 10:21:16;;;;;;;11.98;4.65;;;;;;;;;;5009408;28;20112;-57
2021/07/12 10:23:42;;;;;;;10.48;4.88;;;;;;;;;;5009404;28;20103;-57
2021/07/12 10:26:07;;;;;;;10.40;5.05;;;;;;;;;;5010826;28;20078;-56
2021/07/12 10:28:40;;;;;;;8.45;4.88;;;;;;;;;;5009956;28;20053;-56
2021/07/12 10:31:19;;;;;;;12.80;5.88;;;;;;;;;;5010132;28;20049;-58
2021/07/12 10:33:45;;;;;;;10.85;5.43;;;;;;;;;;5008667;28;20094;-56
2021/07/12 10:36:11;;;;;;;12.73;5.97;;;;;;;;;;5009962;28;20037;-58
2021/07/12 10:38:38;;;;;;;11.23;6.00;;;;;;;;;;5007327;28;20037;-55
2021/07/12 10:41:21;;;;;;;10.20;5.40;;;;;;;;;;5009687;28;20049;-56
2021/07/12 10:43:48;;;;;;;10.32;4.97;;;;;;;;;;5010068;28;20046;-55
2021/07/12 10:46:27;;;;;;;14.68;5.68;;;;;;;;;;5008575;28;20125;-56
2021/07/12 10:48:53;;;;;;;10.88;5.45;;;;;;;;;;5008143;28;20053;-56
2021/07/12 10:51:20;;;;;;;10.40;5.15;;;;;;;;;;5009263;28;20060;-54
2021/07/12 10:53:57;;;;;;;11.00;5.63;;;;;;;;;;5008518;28;20486;-53
2021/07/12 10:56:24;;;;;;;11.23;5.65;;;;;;;;;;5008255;28;20446;-55
2021/07/12 10:58:50;;;;;;;8.27;5.03;;;;;;;;;;5008609;28;20044;-56
2021/07/12 11:01:17;;;;;;;12.23;5.85;;;;;;;;;;5012205;28;20041;-55
2021/07/12 11:03:49;;;;;;;16.65;6.53;;;;;;;;;;5013609;28;20163;-57
2021/07/12 11:06:16;;;;;;;13.98;6.10;;;;;;;;;;5012069;28;20093;-57
2021/07/12 11:08:45;;;;;;;10.95;5.10;;;;;;;;;;5012206;28;20043;-57
2021/07/12 11:11:12;;;;;;;11.02;5.32;;;;;;;;;;5012788;28;20271;-54
2021/07/12 11:13:58;;;;;;;9.63;5.20;;;;;;;;;;5011477;28;21225;-56
2021/07/12 11:16:28;;;;;;;21.20;6.28;;;;;;;;;;5010875;28;20074;-57
2021/07/12 11:18:54;;;;;;;14.43;5.88;;;;;;;;;;5012430;28;20097;-55
2021/07/12 11:21:30;;;;;;;12.77;6.30;;;;;;;;;;5012771;28;20407;-56
2021/07/12 11:24:08;;;;;;;10.73;6.20;;;;;;;;;;5011892;28;20056;-54
2021/07/12 11:26:35;;;;;;;12.90;6.65;;;;;;;;;;5025941;28;20524;-56
2021/07/12 11:29:28;;;;;;;12.50;5.65;;;;;;;;;;5012255;28;20033;-56
2021/07/12 11:32:03;;;;;;;11.55;5.72;;;;;;;;;;5010731;28;20255;-53
2021/07/12 11:34:33;;;;;;;18.48;5.97;;;;;;;;;;5012013;28;20046;-57
2021/07/12 11:37:03;;;;;;;11.85;6.32;;;;;;;;;;5014033;28;20038;-58
2021/07/12 11:39:31;;;;;;;10.32;5.30;;;;;;;;;;5012302;28;20045;-56
2021/07/12 11:41:57;;;;;;;13.63;5.95;;;;;;;;;;5013162;28;20398;-56
2021/07/12 11:44:25;;;;;;;13.35;6.82;;;;;;;;;;5013064;28;20052;-56
2021/07/12 11:46:51;;;;;;;12.40;5.80;;;;;;;;;;5013974;28;20037;-58
2021/07/12 11:49:18;;;;;;;13.93;6.10;;;;;;;;;;5013371;28;20042;-57
2021/07/12 11:51:45;;;;;;;12.60;6.25;;;;;;;;;;5013532;28;20429;-58
2021/07/12 11:54:23;;;;;;;15.55;6.03;;;;;;;;;;5014513;28;20041;-55
2021/07/12 11:57:02;;;;;;;12.10;5.97;;;;;;;;;;5014247;28;20381;-56
2021/07/12 11:59:33;;;;;;;13.32;6.50;;;;;;;;;;5012627;28;20154;-54
2021/07/12 12:02:00;;;;;;;12.25;6.07;;;;;;;;;;5012935;28;20047;-56
2021/07/12 12:04:39;;;;;;;12.50;6.45;;;;;;;;;;5013321;28;20038;-57
2021/07/12 12:07:25;;;;;;;12.73;5.57;;;;;;;;;;5012684;28;20038;-55
2021/07/12 12:09:55;;;;;;;11.98;5.55;;;;;;;;;;5009797;28;20356;-56
2021/07/12 12:12:25;;;;;;;12.13;6.00;;;;;;;;;;5009997;28;20060;-58
2021/07/12 12:14:55;;;;;;;14.40;6.68;;;;;;;;;;5010938;28;20371;-56
2021/07/12 12:17:21;;;;;;;13.13;6.05;;;;;;;;;;5013837;28;20056;-55
2021/07/12 12:20:00;;;;;;;15.75;8.90;;;;;;;;;;5010977;28;20041;-58
2021/07/12 12:22:26;;;;;;;11.07;5.78;;;;;;;;;;5012513;28;20038;-56
2021/07/12 12:24:53;;;;;;;17.13;5.93;;;;;;;;;;5010752;28;20395;-53
2021/07/12 12:27:18;;;;;;;11.27;5.93;;;;;;;;;;5012646;28;20120;-56
2021/07/12 12:29:44;;;;;;;11.63;6.25;;;;;;;;;;5009117;28;20048;-58
2021/07/12 12:32:10;;;;;;;14.70;5.93;;;;;;;;;;5011365;28;20365;-57
2021/07/12 12:34:36;;;;;;;11.40;5.78;;;;;;;;;;5012140;28;20628;-57
2021/07/12 12:37:04;;;;;;;15.80;6.30;;;;;;;;;;5011684;28;20594;-57
2021/07/12 12:39:30;;;;;;;17.38;8.07;;;;;;;;;;5012259;28;20038;-55
2021/07/12 12:41:57;;;;;;;13.68;6.65;;;;;;;;;;5013354;28;20045;-56
2021/07/12 12:44:31;;;;;;;18.25;6.47;;;;;;;;;;5011712;28;20052;-59
2021/07/12 12:46:58;;;;;;;13.55;6.95;;;;;;;;;;5011438;28;20030;-54
2021/07/12 12:49:33;;;;;;;17.40;7.95;;;;;;;;;;5022394;28;20037;-56
2021/07/12 12:51:59;;;;;;;16.95;8.20;;;;;;;;;;5010372;28;20050;-57
2021/07/12 12:54:31;;;;;;;16.75;7.45;;;;;;;;;;5010532;28;20379;-57
2021/07/12 12:56:58;;;;;;;16.88;7.90;;;;;;;;;;5008096;28;20042;-53
2021/07/12 12:59:31;;;;;;;14.52;7.35;;;;;;;;;;5000627;28;20049;-55
2021/07/12 13:01:56;;;;;;;;;;;;;;;;;;5001765;28;20407;-55
2021/07/12 13:04:22;;;;;;;13.93;7.68;;;;;;;;;;5000959;28;20256;-59
2021/07/12 13:06:57;;;;;;;14.52;7.38;;;;;;;;;;5001165;28;20037;-56
2021/07/12 13:09:26;;;;;;;15.90;7.72;;;;;;;;;;5005614;28;20557;-53
2021/07/12 13:12:04;;;;;;;17.20;8.68;;;;;;;;;;5007034;28;20542;-54
2021/07/12 13:14:30;;;;;;;18.60;7.40;;;;;;;;;;5009937;28;20144;-55
2021/07/12 13:17:09;;;;;;;17.48;7.70;;;;;;;;;;5008218;28;20037;-54
2021/07/12 13:19:36;;;;;;;13.52;7.40;;;;;;;;;;5008631;28;20045;-56
2021/07/12 13:22:02;;;;;;;15.98;7.60;;;;;;;;;;5010633;28;20087;-58
2021/07/12 13:24:45;;;;;;;13.02;7.18;;;;;;;;;;5008801;28;20034;-59
2021/07/12 13:27:21;;;;;;;13.23;6.72;;;;;;;;;;5010317;28;20937;-57
2021/07/12 13:29:46;;;;;;;12.88;6.40;;;;;;;;;;5008667;28;20470;-59
2021/07/12 13:32:12;;;;;;;13.52;7.38;;;;;;;;;;5010037;28;20055;-57
2021/07/12 13:34:47;;;;;;;14.65;6.28;;;;;;;;;;5009922;28;20046;-59
2021/07/12 13:37:13;;;;;;;13.48;6.65;;;;;;;;;;5011824;28;20527;-58
2021/07/12 13:39:39;;;;;;;14.70;6.75;;;;;;;;;;5010205;28;20045;-57
2021/07/12 13:42:07;;;;;;;14.00;6.80;;;;;;;;;;5009852;28;20046;-57
2021/07/12 13:44:33;;;;;;;13.85;6.68;;;;;;;;;;5009015;28;20120;-58
2021/07/12 13:46:59;;;;;;;12.00;6.22;;;;;;;;;;5008551;28;20045;-58
2021/07/12 13:49:24;;;;;;;13.68;6.50;;;;;;;;;;5008472;28;20037;-58
2021/07/12 13:51:50;;;;;;;11.23;5.90;;;;;;;;;;5010539;28;20065;-58
2021/07/12 13:54:16;;;;;;;12.88;6.65;;;;;;;;;;5010256;28;20048;-58
2021/07/12 13:56:42;;;;;;;13.30;6.40;;;;;;;;;;5009129;28;20041;-59
2021/07/12 13:59:07;;;;;;;9.85;5.35;;;;;;;;;;5008180;28;20499;-58
2021/07/12 14:01:33;;;;;;;12.50;6.22;;;;;;;;;;5007856;28;20053;-59
2021/07/12 14:03:59;;;;;;;12.40;6.57;;;;;;;;;;5007895;28;20073;-57
2021/07/12 14:06:25;;;;;;;10.50;5.57;;;;;;;;;;5008014;28;20030;-57
2021/07/12 14:08:51;;;;;;;10.60;5.95;;;;;;;;;;5008530;28;20042;-58
2021/07/12 14:11:17;;;;;;;11.50;5.75;;;;;;;;;;5008343;28;20049;-58
2021/07/12 14:13:42;;;;;;;13.18;5.63;;;;;;;;;;5007326;28;20108;-59
2021/07/12 14:16:08;;;;;;;13.73;6.35;;;;;;;;;;5008110;28;20036;-57
2021/07/12 14:18:34;;;;;;;10.32;5.93;;;;;;;;;;5008266;28;20123;-57
2021/07/12 14:21:00;;;;;;;11.80;5.97;;;;;;;;;;5008277;28;20038;-57
2021/07/12 14:23:26;;;;;;;10.50;5.82;;;;;;;;;;5009456;28;20745;-56
2021/07/12 14:25:52;;;;;;;12.43;6.15;;;;;;;;;;5009927;28;20535;-57
2021/07/12 14:28:18;;;;;;;16.65;6.95;;;;;;;;;;5004703;28;20041;-58
2021/07/12 14:30:44;;;;;;;10.35;5.40;;;;;;;;;;5008038;28;20049;-58
2021/07/12 14:33:10;;;;;;;12.38;6.63;;;;;;;;;;5009629;28;21047;-58
2021/07/12 14:35:35;;;;;;;10.82;5.57;;;;;;;;;;5012736;28;20065;-56
2021/07/12 14:38:01;;;;;;;13.93;5.88;;;;;;;;;;5017401;28;20085;-59
2021/07/12 14:40:27;;;;;;;11.93;5.63;;;;;;;;;;5012996;28;20495;-56
2021/07/12 14:42:56;;;;;;;10.60;5.63;;;;;;;;;;5016346;28;20041;-59